Time;durP1;ratioP1;P1;durP2;ratioP2;P2;SDS_P1;SDS_P2;PMS_P1;PMS_P2;Temp;Humidity;BMP_temperature;BMP_pressure;BME280_temperature;BME280_humidity;BME280_pressure;Samples;Min_cycle;Max_cycle;Signal;HPM_P1;HPM_P2
2022/09/26 00:00:12;;;;;;;0.40;0.40;;;21.50;70.10;;;;;;5128714;27;46699;-76
2022/09/26 00:02:40;;;;;;;1.05;0.55;;;21.50;70.10;;;;;;5128527;27;45243;-75
2022/09/26 00:05:10;;;;;;;0.43;0.32;;;21.50;70.10;;;;;;5128932;27;45179;-75
2022/09/26 00:07:37;;;;;;;0.85;0.40;;;21.50;71.20;;;;;;5129099;27;45150;-75
2022/09/26 00:10:11;;;;;;;1.17;0.50;;;21.50;70.10;;;;;;5128737;27;45449;-75
2022/09/26 00:12:38;;;;;;;0.90;0.50;;;21.50;70.20;;;;;;5128396;27;45402;-75
2022/09/26 00:15:06;;;;;;;1.02;0.40;;;21.50;70.20;;;;;;5129226;27;45406;-75
2022/09/26 00:17:33;;;;;;;0.40;0.40;;;21.50;70.10;;;;;;5149656;27;45153;-75
2022/09/26 00:20:01;;;;;;;0.40;0.30;;;21.50;70.20;;;;;;5149366;27;47047;-76
2022/09/26 00:22:29;;;;;;;1.55;0.52;;;21.50;70.20;;;;;;5149525;27;45337;-75
2022/09/26 00:24:56;;;;;;;1.90;0.60;;;21.50;70.20;;;;;;5149382;27;45390;-75
2022/09/26 00:27:23;;;;;;;0.85;0.40;;;21.50;70.20;;;;;;5149323;27;45466;-75
2022/09/26 00:29:50;;;;;;;0.50;0.45;;;21.50;70.20;;;;;;5144200;27;47887;-75
2022/09/26 00:32:16;;;;;;;0.40;0.40;;;21.50;70.20;;;;;;5128282;27;45378;-75
2022/09/26 00:34:43;;;;;;;0.40;0.32;;;21.50;70.30;;;;;;5128661;27;45475;-75
2022/09/26 00:37:11;;;;;;;2.85;0.70;;;21.50;70.30;;;;;;5128193;27;45239;-76
2022/09/26 00:39:38;;;;;;;1.02;0.35;;;21.50;70.20;;;;;;5134981;27;46435;-75
2022/09/26 00:42:05;;;;;;;0.68;0.55;;;21.50;70.30;;;;;;5149154;27;45254;-75
2022/09/26 00:44:42;;;;;;;1.02;0.40;;;21.50;70.30;;;;;;5128154;27;45216;-75
2022/09/26 00:47:21;;;;;;;0.63;0.50;;;21.50;70.20;;;;;;5128249;27;45245;-76
2022/09/26 00:49:50;;;;;;;0.60;0.40;;;21.50;70.20;;;;;;5128255;27;45269;-75
2022/09/26 00:52:24;;;;;;;1.30;0.45;;;21.50;70.20;;;;;;5130453;27;45358;-75
2022/09/26 00:54:55;;;;;;;0.30;0.30;;;21.50;70.20;;;;;;5128101;27;45196;-75
2022/09/26 00:57:28;;;;;;;0.52;0.47;;;21.50;70.10;;;;;;5148321;27;45383;-75
2022/09/26 01:00:01;;;;;;;1.20;0.40;;;21.50;70.10;;;;;;5148388;27;46848;-76
2022/09/26 01:02:28;;;;;;;1.50;0.40;;;21.50;70.10;;;;;;5148509;27;45220;-75
2022/09/26 01:04:56;;;;;;;1.05;0.50;;;21.50;70.20;;;;;;5149077;27;45357;-75
2022/09/26 01:07:26;;;;;;;0.73;0.47;;;21.50;70.20;;;;;;5129609;27;45391;-75
2022/09/26 01:09:55;;;;;;;0.85;0.55;;;21.50;70.30;;;;;;5127687;27;48107;-75
2022/09/26 01:12:22;;;;;;;1.77;0.50;;;21.50;70.30;;;;;;5127736;27;45396;-75
2022/09/26 01:14:52;;;;;;;0.40;0.40;;;21.50;70.30;;;;;;5127953;27;45300;-75
2022/09/26 01:17:33;;;;;;;0.93;0.30;;;21.50;70.20;;;;;;5127696;27;45380;-75
2022/09/26 01:20:11;;;;;;;0.30;0.30;;;21.50;70.30;;;;;;5127620;27;46422;-75
2022/09/26 01:23:05;;;;;;;1.80;0.60;;;21.50;70.30;;;;;;5127735;27;45474;-75
2022/09/26 01:25:49;;;;;;;0.40;0.40;;;21.50;70.30;;;;;;5131962;27;45323;-75
2022/09/26 01:28:34;;;;;;;0.57;0.50;;;21.50;70.30;;;;;;5148551;27;45198;-75
2022/09/26 01:31:12;;;;;;;0.75;0.30;;;21.50;70.30;;;;;;5148064;27;46256;-75
2022/09/26 01:33:53;;;;;;;0.30;0.30;;;21.50;70.30;;;;;;5148505;27;45279;-75
2022/09/26 01:36:48;;;;;;;0.60;0.47;;;21.40;70.30;;;;;;5148088;27;45237;-75
2022/09/26 01:39:28;;;;;;;0.70;0.43;;;21.40;70.30;;;;;;5148244;27;45296;-75
2022/09/26 01:42:01;;;;;;;0.30;0.30;;;21.40;70.40;;;;;;5147079;27;46320;-76
2022/09/26 01:44:32;;;;;;;0.57;0.30;;;21.40;70.40;;;;;;5148441;27;45185;-75
2022/09/26 01:47:09;;;;;;;0.40;0.40;;;21.40;70.40;;;;;;5148013;27;45216;-75
2022/09/26 01:49:44;;;;;;;0.40;0.28;;;21.50;70.40;;;;;;5148036;27;45580;-75
2022/09/26 01:52:19;;;;;;;1.42;0.47;;;21.50;70.40;;;;;;5148058;27;47138;-75
2022/09/26 01:54:51;;;;;;;0.80;0.50;;;21.50;70.40;;;;;;5161070;27;45921;-75
2022/09/26 01:57:24;;;;;;;0.38;0.38;;;21.50;70.40;;;;;;5168736;27;45405;-75
2022/09/26 01:59:55;;;;;;;0.50;0.43;;;21.50;70.40;;;;;;5169133;27;45399;-75
2022/09/26 02:02:26;;;;;;;0.50;0.40;;;21.50;70.40;;;;;;5147932;27;48938;-75
2022/09/26 02:04:55;;;;;;;1.10;0.40;;;21.50;70.60;;;;;;5147395;27;45395;-75
2022/09/26 02:07:30;;;;;;;0.73;0.50;;;21.50;70.70;;;;;;5148057;27;45181;-75
2022/09/26 02:10:03;;;;;;;0.73;0.43;;;21.40;70.50;;;;;;5147995;27;45364;-75
2022/09/26 02:12:41;;;;;;;0.40;0.40;;;21.50;70.70;;;;;;5147259;27;47043;-75
2022/09/26 02:15:10;;;;;;;0.70;0.20;;;21.50;70.70;;;;;;5147238;27;45251;-75
2022/09/26 02:17:42;;;;;;;0.45;0.40;;;21.40;70.50;;;;;;5147431;27;45174;-75
2022/09/26 02:20:15;;;;;;;0.50;0.50;;;21.40;70.60;;;;;;5147875;27;45307;-75
2022/09/26 02:22:42;;;;;;;0.40;0.40;;;21.40;70.50;;;;;;5152874;27;46413;-75
2022/09/26 02:25:10;;;;;;;0.80;0.50;;;21.40;70.60;;;;;;5147200;27;45368;-75
2022/09/26 02:27:37;;;;;;;0.40;0.40;;;21.40;70.60;;;;;;5147609;27;45423;-75
2022/09/26 02:30:05;;;;;;;0.68;0.60;;;21.40;70.50;;;;;;5147729;27;45252;-75
2022/09/26 02:32:33;;;;;;;0.63;0.52;;;21.40;70.50;;;;;;5147188;27;47371;-75
2022/09/26 02:35:52;;;;;;;0.63;0.50;;;21.50;70.60;;;;;;5147307;27;45625;-75
2022/09/26 02:37:49;;;;;;;0.43;0.30;;;21.40;70.50;;;;;;5146769;27;45191;-75
2022/09/26 02:40:17;;;;;;;0.30;0.30;;;21.40;70.50;;;;;;5147099;27;45353;-75
2022/09/26 02:42:50;;;;;;;0.40;0.40;;;21.40;70.50;;;;;;5146819;27;48159;-75
2022/09/26 02:45:26;;;;;;;1.13;0.50;;;21.40;70.50;;;;;;5147200;27;45313;-75
2022/09/26 02:48:21;;;;;;;0.60;0.40;;;21.40;70.60;;;;;;5147370;27;45204;-75
2022/09/26 02:51:07;;;;;;;0.50;0.43;;;21.40;70.50;;;;;;5147415;27;45395;-75
2022/09/26 02:53:53;;;;;;;0.52;0.40;;;21.40;70.30;;;;;;5149642;27;47095;-75
2022/09/26 02:56:29;;;;;;;0.63;0.50;;;21.40;70.50;;;;;;5150452;27;45405;-75
2022/09/26 02:59:05;;;;;;;0.52;0.40;;;21.40;70.40;;;;;;5150575;27;45310;-75
2022/09/26 03:01:38;;;;;;;0.50;0.43;;;21.40;70.40;;;;;;5131290;27;45241;-75
2022/09/26 03:04:10;;;;;;;0.40;0.40;;;21.40;70.40;;;;;;5129342;27;45428;-75
2022/09/26 03:06:44;;;;;;;0.63;0.47;;;21.40;70.30;;;;;;5129481;27;45920;-75
2022/09/26 03:09:13;;;;;;;1.92;0.40;;;21.40;70.30;;;;;;5130087;27;45227;-75
2022/09/26 03:11:41;;;;;;;0.90;0.55;;;21.40;70.40;;;;;;5129593;27;45232;-75
2022/09/26 03:14:10;;;;;;;0.40;0.40;;;21.40;70.40;;;;;;5129659;27;45251;-75
2022/09/26 03:16:41;;;;;;;0.68;0.47;;;21.40;70.40;;;;;;5129345;27;45524;-75
2022/09/26 03:19:14;;;;;;;0.70;0.40;;;21.40;70.30;;;;;;5147561;27;45296;-75
2022/09/26 03:21:44;;;;;;;0.30;0.30;;;21.40;70.40;;;;;;5150572;27;45259;-75
2022/09/26 03:24:11;;;;;;;0.65;0.50;;;21.50;70.50;;;;;;5149665;27;46536;-75
2022/09/26 03:26:38;;;;;;;0.68;0.68;;;21.40;70.40;;;;;;5148692;27;45272;-74
2022/09/26 03:29:06;;;;;;;1.00;0.40;;;21.40;70.40;;;;;;5149695;27;45383;-75
2022/09/26 03:31:32;;;;;;;0.65;0.50;;;21.40;70.50;;;;;;5150010;27;45419;-75
2022/09/26 03:34:00;;;;;;;0.73;0.40;;;21.40;70.50;;;;;;5149734;27;47964;-75
2022/09/26 03:36:27;;;;;;;0.63;0.50;;;21.40;70.30;;;;;;5149809;27;45229;-75
2022/09/26 03:38:55;;;;;;;0.75;0.52;;;21.40;70.40;;;;;;5145397;27;45259;-75
2022/09/26 03:41:23;;;;;;;0.30;0.30;;;21.40;70.40;;;;;;5149129;27;45281;-75
2022/09/26 03:43:49;;;;;;;0.40;0.40;;;21.40;70.30;;;;;;5149481;27;47242;-75
2022/09/26 03:46:17;;;;;;;0.73;0.32;;;21.40;70.20;;;;;;5149981;27;45334;-75
2022/09/26 03:48:43;;;;;;;0.90;0.40;;;21.40;70.10;;;;;;5149932;27;45289;-75
2022/09/26 03:51:12;;;;;;;0.22;0.22;;;21.40;70.20;;;;;;5143726;27;45475;-75
2022/09/26 03:53:42;;;;;;;0.38;0.38;;;21.40;70.30;;;;;;5149302;27;45893;-75
2022/09/26 03:56:13;;;;;;;0.20;0.20;;;21.40;70.20;;;;;;5139135;27;45631;-75
2022/09/26 03:58:41;;;;;;;0.50;0.30;;;21.40;70.30;;;;;;5128603;27;45305;-75
2022/09/26 04:01:10;;;;;;;0.50;0.50;;;21.40;70.10;;;;;;5137938;27;45430;-75
2022/09/26 04:03:38;;;;;;;0.85;0.50;;;21.40;70.00;;;;;;5148511;27;45408;-75
2022/09/26 04:06:07;;;;;;;0.30;0.30;;;21.40;70.00;;;;;;5149409;27;45217;-75
2022/09/26 04:08:34;;;;;;;1.02;0.70;;;21.40;70.10;;;;;;5149234;27;45171;-75
2022/09/26 04:11:02;;;;;;;0.63;0.45;;;21.40;70.00;;;;;;5148885;27;45472;-75
2022/09/26 04:13:32;;;;;;;0.85;0.38;;;21.40;70.00;;;;;;5148891;27;48235;-75
2022/09/26 04:16:00;;;;;;;0.57;0.52;;;21.40;69.90;;;;;;5148891;27;45290;-75
2022/09/26 04:18:28;;;;;;;0.30;0.30;;;21.40;70.10;;;;;;5151968;27;45325;-75
2022/09/26 04:20:59;;;;;;;0.65;0.40;;;21.40;70.00;;;;;;5149681;27;45226;-75
2022/09/26 04:23:27;;;;;;;0.55;0.40;;;21.40;70.00;;;;;;5127783;27;46468;-75
2022/09/26 04:25:54;;;;;;;0.30;0.20;;;21.40;69.90;;;;;;5139623;27;45277;-75
2022/09/26 04:28:21;;;;;;;0.50;0.47;;;21.40;69.80;;;;;;5152232;27;45354;-75
2022/09/26 04:30:50;;;;;;;0.30;0.30;;;21.40;69.80;;;;;;5150792;27;45276;-75
2022/09/26 04:33:18;;;;;;;0.70;0.50;;;21.40;69.90;;;;;;5150830;27;46970;-75
2022/09/26 04:35:45;;;;;;;0.63;0.40;;;21.40;69.70;;;;;;5128082;27;45289;-75
2022/09/26 04:38:11;;;;;;;0.40;0.40;;;21.40;69.90;;;;;;5127886;27;45371;-76
2022/09/26 04:40:38;;;;;;;0.30;0.30;;;21.40;69.70;;;;;;5138908;27;45332;-75
2022/09/26 04:43:05;;;;;;;0.32;0.30;;;21.40;69.70;;;;;;5148661;27;47663;-75
2022/09/26 04:45:32;;;;;;;0.38;0.32;;;21.40;69.70;;;;;;5148439;27;45313;-75
2022/09/26 04:48:00;;;;;;;0.77;0.45;;;21.40;69.60;;;;;;5148110;27;45343;-75
2022/09/26 04:50:28;;;;;;;0.45;0.43;;;21.40;69.70;;;;;;5148782;27;45494;-75
2022/09/26 04:52:55;;;;;;;0.30;0.30;;;21.40;70.00;;;;;;5148511;27;45331;-75
2022/09/26 04:55:22;;;;;;;0.50;0.40;;;21.40;69.30;;;;;;5148200;27;45310;-75
2022/09/26 04:57:49;;;;;;;0.40;0.40;;;21.40;69.40;;;;;;5148252;27;45363;-75
2022/09/26 05:00:17;;;;;;;0.73;0.28;;;21.40;69.50;;;;;;5148347;27;45603;-75
2022/09/26 05:02:46;;;;;;;0.55;0.30;;;21.40;69.30;;;;;;5147796;27;47119;-75
2022/09/26 05:05:14;;;;;;;0.88;0.40;;;21.40;70.40;;;;;;5148098;27;45302;-75
2022/09/26 05:07:41;;;;;;;0.20;0.20;;;21.40;69.30;;;;;;5148235;27;45183;-76
2022/09/26 05:10:09;;;;;;;0.73;0.40;;;21.40;69.40;;;;;;5151062;27;45565;-75
2022/09/26 05:12:39;;;;;;;0.75;0.30;;;21.40;69.10;;;;;;5148093;27;48105;-75
2022/09/26 05:15:08;;;;;;;0.85;0.30;;;21.40;69.20;;;;;;5141196;27;45427;-75
2022/09/26 05:17:35;;;;;;;0.50;0.40;;;21.40;69.50;;;;;;5139913;27;45495;-75
2022/09/26 05:20:03;;;;;;;0.63;0.30;;;21.40;69.60;;;;;;5136284;27;45448;-75
2022/09/26 05:22:31;;;;;;;0.28;0.22;;;21.40;69.70;;;;;;5134467;27;47330;-75
2022/09/26 05:27:43;;;;;;;0.40;0.40;;;21.40;69.90;;;;;;5139447;27;45485;-75
2022/09/26 05:30:11;;;;;;;0.32;0.32;;;21.40;69.90;;;;;;5138442;27;45313;-75
2022/09/26 05:32:39;;;;;;;0.47;0.30;;;21.40;70.00;;;;;;5146546;27;47585;-75
2022/09/26 05:35:06;;;;;;;0.50;0.30;;;21.40;70.00;;;;;;5133648;27;45379;-75
2022/09/26 05:37:34;;;;;;;0.75;0.28;;;21.40;70.10;;;;;;5141979;27;45311;-75
2022/09/26 05:42:45;;;;;;;0.35;0.35;;;21.40;70.10;;;;;;5138536;27;45728;-75
2022/09/26 05:45:14;;;;;;;0.95;0.30;;;21.40;70.00;;;;;;5155787;27;45366;-75
2022/09/26 05:47:41;;;;;;;0.32;0.22;;;21.40;69.80;;;;;;5141783;27;45241;-75
2022/09/26 05:50:09;;;;;;;2.00;0.40;;;21.40;69.60;;;;;;5131451;27;45180;-75
2022/09/26 05:52:39;;;;;;;0.60;0.30;;;21.40;69.40;;;;;;5141149;27;45273;-75
2022/09/26 05:55:06;;;;;;;0.68;0.40;;;21.40;69.10;;;;;;5130964;27;45343;-75
2022/09/26 05:57:33;;;;;;;0.45;0.30;;;21.40;68.90;;;;;;5145782;27;45294;-75
2022/09/26 06:00:01;;;;;;;0.28;0.28;;;21.40;68.60;;;;;;5140941;27;45214;-75
2022/09/26 06:02:28;;;;;;;0.85;0.50;;;21.40;69.00;;;;;;5137870;27;48323;-75
2022/09/26 06:04:56;;;;;;;0.43;0.30;;;21.40;68.90;;;;;;5140578;27;45803;-75
2022/09/26 06:07:23;;;;;;;1.13;0.50;;;21.40;68.80;;;;;;5137917;27;45385;-75
2022/09/26 06:09:51;;;;;;;0.45;0.35;;;21.40;68.70;;;;;;5143190;27;45237;-75
2022/09/26 06:12:19;;;;;;;0.47;0.30;;;21.40;68.70;;;;;;5149548;27;45252;-75
2022/09/26 06:14:45;;;;;;;0.40;0.32;;;21.40;68.60;;;;;;5149472;27;45488;-75
2022/09/26 06:17:12;;;;;;;1.30;0.40;;;21.40;68.80;;;;;;5143864;27;45391;-75
2022/09/26 06:19:39;;;;;;;0.30;0.30;;;21.40;68.90;;;;;;5135027;27;45212;-75
2022/09/26 06:22:06;;;;;;;1.13;0.38;;;21.40;68.90;;;;;;5137778;27;47055;-76
2022/09/26 06:24:33;;;;;;;0.35;0.35;;;21.40;68.70;;;;;;5130536;27;45335;-75
2022/09/26 06:27:01;;;;;;;0.50;0.47;;;21.40;68.70;;;;;;5148646;27;45290;-75
2022/09/26 06:29:28;;;;;;;1.10;0.50;;;21.30;68.60;;;;;;5136331;27;45389;-75
2022/09/26 06:31:55;;;;;;;1.08;0.40;;;21.40;68.70;;;;;;5135411;27;47026;-74
2022/09/26 06:34:22;;;;;;;1.05;0.60;;;21.40;68.70;;;;;;5137955;27;45359;-75
2022/09/26 06:36:49;;;;;;;0.60;0.45;;;21.40;68.80;;;;;;5141384;27;45497;-75
2022/09/26 06:39:15;;;;;;;1.30;0.60;;;21.40;68.80;;;;;;5147522;27;45500;-75
2022/09/26 06:41:42;;;;;;;2.05;0.65;;;21.40;68.80;;;;;;5143199;27;47114;-75
2022/09/26 06:44:10;;;;;;;0.95;0.40;;;21.40;68.90;;;;;;5141144;27;46011;-75
2022/09/26 06:46:37;;;;;;;0.80;0.28;;;21.40;68.90;;;;;;5139376;27;45496;-75
2022/09/26 06:49:05;;;;;;;0.43;0.30;;;21.40;68.90;;;;;;5131491;27;45344;-75
2022/09/26 06:51:32;;;;;;;0.40;0.40;;;21.40;68.90;;;;;;5147463;27;46702;-75
2022/09/26 06:53:59;;;;;;;1.17;0.30;;;21.40;69.00;;;;;;5150665;27;45278;-76
2022/09/26 06:56:26;;;;;;;1.42;0.40;;;21.40;69.10;;;;;;5143189;27;45616;-75
2022/09/26 06:58:53;;;;;;;1.80;0.50;;;21.40;69.10;;;;;;5142257;27;45557;-75
2022/09/26 07:01:21;;;;;;;0.50;0.40;;;21.40;69.10;;;;;;5150180;27;46585;-75
2022/09/26 07:03:48;;;;;;;1.25;0.50;;;21.40;69.20;;;;;;5151165;27;45289;-75
2022/09/26 07:06:16;;;;;;;0.47;0.30;;;21.40;69.20;;;;;;5149402;27;45236;-75
2022/09/26 07:08:43;;;;;;;0.70;0.43;;;21.40;69.30;;;;;;5149473;27;45442;-75
2022/09/26 07:11:10;;;;;;;0.40;0.40;;;21.50;69.40;;;;;;5149089;27;47573;-75
2022/09/26 07:13:38;;;;;;;0.80;0.50;;;21.40;69.20;;;;;;5142607;27;45253;-75
2022/09/26 07:16:05;;;;;;;0.50;0.40;;;21.40;69.40;;;;;;5147326;27;45405;-75
2022/09/26 07:18:33;;;;;;;0.30;0.28;;;21.40;69.50;;;;;;5149388;27;45568;-75
2022/09/26 07:21:04;;;;;;;0.75;0.40;;;21.40;69.50;;;;;;5140923;27;45312;-75
2022/09/26 07:23:31;;;;;;;0.30;0.30;;;21.40;69.50;;;;;;5137582;27;46491;-76
2022/09/26 07:25:58;;;;;;;1.30;0.30;;;21.50;69.60;;;;;;5147333;27;45445;-75
2022/09/26 07:28:27;;;;;;;0.28;0.28;;;21.50;69.70;;;;;;5137432;27;45306;-75
2022/09/26 07:30:56;;;;;;;0.20;0.20;;;21.40;69.60;;;;;;5147256;27;46330;-74
2022/09/26 07:33:23;;;;;;;0.40;0.40;;;21.40;69.70;;;;;;5138816;27;45347;-74
2022/09/26 07:35:52;;;;;;;0.98;0.30;;;21.40;69.80;;;;;;5142192;27;45447;-75
2022/09/26 07:38:19;;;;;;;0.50;0.40;;;21.50;69.80;;;;;;5143760;27;45596;-75
2022/09/26 07:40:46;;;;;;;0.50;0.30;;;21.40;69.80;;;;;;5147683;27;46202;-75
2022/09/26 07:43:13;;;;;;;0.50;0.30;;;21.40;69.80;;;;;;5140246;27;45344;-75
2022/09/26 07:51:10;;;;;;;0.52;0.20;;;21.40;69.80;;;;;;5135290;27;45419;-74
2022/09/26 07:53:40;;;;;;;0.25;0.20;;;21.40;69.80;;;;;;5137028;27;45412;-75
2022/09/26 07:56:09;;;;;;;0.17;0.10;;;21.40;69.80;;;;;;5148669;27;45341;-75
2022/09/26 07:58:38;;;;;;;0.28;0.20;;;21.40;70.00;;;;;;5155701;27;45596;-75
2022/09/26 08:01:06;;;;;;;1.35;0.40;;;21.40;70.00;;;;;;5159881;27;47674;-75
2022/09/26 08:03:33;;;;;;;0.45;0.35;;;21.40;70.00;;;;;;5141810;27;45423;-75
2022/09/26 08:06:01;;;;;;;0.35;0.35;;;21.40;70.00;;;;;;5140437;27;45377;-75
2022/09/26 08:08:29;;;;;;;0.43;0.30;;;21.40;70.10;;;;;;5137937;27;45442;-74
2022/09/26 08:10:57;;;;;;;0.30;0.20;;;21.40;70.10;;;;;;5145420;27;46074;-75
2022/09/26 08:13:25;;;;;;;1.23;0.40;;;21.40;70.10;;;;;;5142737;27;45429;-74
2022/09/26 08:15:52;;;;;;;1.38;0.20;;;21.50;71.20;;;;;;5140758;27;45333;-75
2022/09/26 08:18:19;;;;;;;0.55;0.30;;;21.40;70.10;;;;;;5147532;27;45245;-75
2022/09/26 08:20:46;;;;;;;0.60;0.30;;;21.50;70.20;;;;;;5142824;27;47281;-75
2022/09/26 08:23:14;;;;;;;1.05;0.60;;;21.50;70.10;;;;;;5146292;27;45422;-75
2022/09/26 08:25:42;;;;;;;0.88;0.20;;;21.40;71.30;;;;;;5148388;27;45514;-75
2022/09/26 08:28:11;;;;;;;0.45;0.30;;;21.40;70.30;;;;;;5149021;27;45294;-75
2022/09/26 08:30:37;;;;;;;1.38;0.30;;;21.50;70.30;;;;;;5148707;27;47340;-75
2022/09/26 08:33:04;;;;;;;0.52;0.32;;;21.50;70.10;;;;;;5145870;27;45544;-75
2022/09/26 08:35:35;;;;;;;0.32;0.30;;;21.50;70.10;;;;;;5141450;27;45530;-75
2022/09/26 08:38:03;;;;;;;0.20;0.20;;;21.50;70.10;;;;;;5151903;27;45474;-74
2022/09/26 08:40:38;;;;;;;0.70;0.20;;;21.50;70.10;;;;;;5138570;27;47532;-75
2022/09/26 08:43:15;;;;;;;0.38;0.38;;;21.50;70.00;;;;;;5147814;27;45307;-75
2022/09/26 08:48:57;;;;;;;0.75;0.43;;;21.50;69.90;;;;;;5098028;27;45367;-75
2022/09/26 08:51:30;;;;;;;0.15;0.15;;;21.60;69.90;;;;;;5146795;27;45731;-75
2022/09/26 08:54:02;;;;;;;0.75;0.30;;;21.50;69.80;;;;;;5147704;27;45743;-75
2022/09/26 08:56:35;;;;;;;0.30;0.30;;;21.60;69.90;;;;;;5146346;27;45243;-75
2022/09/26 08:59:05;;;;;;;0.10;0.10;;;21.60;69.90;;;;;;5127180;27;45128;-75
2022/09/26 09:01:38;;;;;;;0.38;0.30;;;21.50;69.80;;;;;;5134724;27;45485;-75
2022/09/26 09:04:10;;;;;;;1.02;0.40;;;21.60;69.80;;;;;;5147521;27;45474;-75
2022/09/26 09:06:38;;;;;;;0.75;0.30;;;21.50;69.70;;;;;;5148171;27;45170;-75
2022/09/26 09:09:06;;;;;;;0.20;0.20;;;21.50;69.80;;;;;;5147448;27;45584;-75
2022/09/26 09:11:56;;;;;;;0.52;0.30;;;21.50;69.80;;;;;;5147281;27;47660;-75
2022/09/26 09:14:44;;;;;;;0.25;0.22;;;21.50;69.90;;;;;;5138129;27;45575;-75
2022/09/26 09:17:22;;;;;;;0.68;0.20;;;21.50;69.90;;;;;;5144526;27;45501;-75
2022/09/26 09:19:58;;;;;;;0.20;0.20;;;21.50;69.90;;;;;;5147543;27;45197;-75
2022/09/26 09:22:45;;;;;;;0.28;0.28;;;21.50;69.90;;;;;;5146351;27;46538;-75
2022/09/26 09:25:17;;;;;;;0.60;0.22;;;21.50;69.90;;;;;;5133886;27;45255;-75
2022/09/26 09:27:55;;;;;;;0.10;0.10;;;21.50;70.00;;;;;;5125769;27;45313;-75
2022/09/26 09:30:25;;;;;;;0.30;0.20;;;21.50;70.10;;;;;;5145401;27;45253;-75
2022/09/26 09:32:56;;;;;;;0.43;0.25;;;21.50;70.00;;;;;;5146803;27;48346;-75
2022/09/26 09:35:32;;;;;;;0.85;0.35;;;21.50;70.00;;;;;;5141587;27;45349;-75
2022/09/26 09:37:59;;;;;;;0.22;0.20;;;21.50;70.10;;;;;;5147049;27;45518;-75
2022/09/26 09:40:31;;;;;;;0.20;0.20;;;21.50;70.00;;;;;;5146905;27;45436;-75
2022/09/26 09:43:04;;;;;;;1.52;0.38;;;21.50;70.10;;;;;;5126284;27;47042;-75
2022/09/26 09:45:41;;;;;;;0.40;0.30;;;21.50;69.90;;;;;;5126870;27;45234;-75
2022/09/26 09:48:11;;;;;;;0.98;0.30;;;21.50;69.90;;;;;;5126444;27;45244;-75
2022/09/26 09:50:50;;;;;;;0.30;0.30;;;21.50;70.00;;;;;;5142421;27;45376;-75
2022/09/26 09:53:33;;;;;;;0.57;0.10;;;21.50;70.00;;;;;;5143618;27;46853;-75
2022/09/26 09:56:09;;;;;;;0.15;0.10;;;21.50;70.00;;;;;;5123776;27;45251;-75
2022/09/26 09:58:52;;;;;;;0.80;0.20;;;21.50;69.90;;;;;;5128247;27;45301;-75
2022/09/26 10:01:25;;;;;;;0.88;0.30;;;21.50;71.00;;;;;;5126570;27;45325;-75
2022/09/26 10:04:03;;;;;;;0.28;0.25;;;21.50;70.00;;;;;;5138570;27;45509;-75
2022/09/26 10:06:32;;;;;;;0.22;0.10;;;21.50;69.90;;;;;;5147157;27;45897;-75
2022/09/26 10:09:04;;;;;;;0.30;0.28;;;21.50;70.10;;;;;;5146959;27;45495;-75
2022/09/26 10:11:40;;;;;;;0.98;0.30;;;21.50;70.00;;;;;;5135745;27;45698;-75
2022/09/26 10:14:13;;;;;;;1.15;0.50;;;21.50;70.10;;;;;;5149085;27;45461;-75
2022/09/26 10:17:17;;;;;;;1.13;0.60;;;21.40;70.00;;;;;;5146200;27;45638;-75
2022/09/26 10:19:44;;;;;;;1.80;0.70;;;21.50;70.10;;;;;;5146146;27;45284;-74
2022/09/26 10:22:17;;;;;;;2.22;0.90;;;21.50;70.20;;;;;;5142533;27;45483;-75
2022/09/26 10:24:47;;;;;;;1.23;0.63;;;21.50;70.10;;;;;;5145755;27;46263;-75
2022/09/26 10:27:17;;;;;;;0.50;0.40;;;21.50;70.20;;;;;;5146257;27;45286;-75
2022/09/26 10:29:46;;;;;;;0.50;0.50;;;21.50;70.20;;;;;;5146536;27;45337;-75
2022/09/26 10:32:17;;;;;;;1.15;0.43;;;21.40;70.10;;;;;;5151000;27;45332;-75
2022/09/26 10:35:04;;;;;;;1.15;0.70;;;21.40;70.20;;;;;;5167365;27;46439;-75
2022/09/26 10:37:31;;;;;;;0.80;0.52;;;21.40;70.20;;;;;;5142494;27;45445;-74
2022/09/26 10:42:45;;;;;;;2.05;0.80;;;21.40;70.10;;;;;;5153488;27;45279;-75
2022/09/26 10:45:16;;;;;;;1.55;0.98;;;21.50;70.20;;;;;;5137227;27;46605;-75
2022/09/26 10:47:50;;;;;;;2.55;0.80;;;21.50;70.30;;;;;;5146012;27;45357;-75
2022/09/26 10:50:23;;;;;;;1.52;0.77;;;21.40;70.10;;;;;;5145604;27;45412;-75
2022/09/26 10:52:54;;;;;;;1.35;0.60;;;21.50;70.20;;;;;;5146666;27;45190;-75
2022/09/26 10:55:26;;;;;;;2.25;0.60;;;21.50;70.20;;;;;;5137944;27;45292;-75
2022/09/26 10:57:55;;;;;;;0.65;0.57;;;21.50;70.20;;;;;;5141117;27;45357;-75
2022/09/26 11:00:36;;;;;;;1.13;0.60;;;21.50;70.20;;;;;;5145931;27;45275;-75
2022/09/26 11:03:07;;;;;;;1.00;0.60;;;21.50;70.30;;;;;;5145668;27;45427;-75
2022/09/26 11:08:20;;;;;;;1.27;0.70;;;21.50;70.20;;;;;;5146428;27;45366;-75
2022/09/26 11:10:48;;;;;;;0.65;0.50;;;21.50;70.30;;;;;;5145986;27;45294;-75
2022/09/26 11:13:18;;;;;;;1.38;0.60;;;21.40;70.20;;;;;;5145830;27;45416;-75
2022/09/26 11:15:53;;;;;;;0.82;0.60;;;21.40;70.20;;;;;;5149435;27;47783;-75
2022/09/26 11:18:29;;;;;;;0.73;0.40;;;21.50;70.20;;;;;;5145717;27;45517;-75
2022/09/26 11:21:04;;;;;;;1.23;0.65;;;21.40;70.20;;;;;;5144968;27;45355;-75
2022/09/26 11:23:37;;;;;;;0.98;0.43;;;21.40;70.20;;;;;;5145181;27;45440;-75
2022/09/26 11:26:15;;;;;;;1.00;0.68;;;21.40;70.20;;;;;;5148957;27;46656;-75
2022/09/26 11:28:49;;;;;;;1.00;0.70;;;21.50;70.20;;;;;;5143990;27;45462;-74
2022/09/26 11:31:24;;;;;;;0.88;0.50;;;21.40;70.10;;;;;;5140407;27;45340;-76
2022/09/26 11:33:53;;;;;;;0.82;0.45;;;21.40;70.10;;;;;;5149380;27;45421;-75
2022/09/26 11:36:45;;;;;;;1.42;0.68;;;21.40;70.10;;;;;;5150438;27;47543;-75
2022/09/26 11:39:31;;;;;;;0.90;0.52;;;21.40;70.00;;;;;;5147775;27;45443;-75
2022/09/26 11:42:12;;;;;;;0.70;0.50;;;21.50;70.20;;;;;;5150473;27;45304;-75
2022/09/26 11:44:53;;;;;;;1.27;0.40;;;21.40;70.10;;;;;;5142266;27;45221;-75
2022/09/26 11:47:39;;;;;;;0.60;0.40;;;21.40;71.20;;;;;;5148441;27;45296;-75
2022/09/26 11:50:41;;;;;;;1.17;0.60;;;21.40;70.10;;;;;;5139022;27;45457;-75
2022/09/26 11:53:25;;;;;;;0.50;0.40;;;21.40;70.20;;;;;;5149385;27;45344;-75
2022/09/26 11:56:14;;;;;;;0.88;0.60;;;21.40;70.20;;;;;;5148701;27;45352;-75
2022/09/26 11:58:46;;;;;;;0.90;0.47;;;21.40;70.20;;;;;;5142151;27;47043;-75
2022/09/26 12:01:20;;;;;;;0.93;0.45;;;21.40;70.10;;;;;;5151629;27;45334;-74
2022/09/26 12:04:10;;;;;;;1.48;0.57;;;21.40;70.10;;;;;;5150575;27;45233;-75
2022/09/26 12:06:48;;;;;;;1.10;0.52;;;21.40;70.10;;;;;;5129312;27;45350;-75
2022/09/26 12:09:34;;;;;;;0.63;0.38;;;21.40;70.10;;;;;;5129412;27;46873;-75
2022/09/26 12:12:10;;;;;;;1.38;0.52;;;21.40;70.10;;;;;;5136271;27;45436;-75
2022/09/26 12:15:01;;;;;;;1.25;0.60;;;21.40;70.10;;;;;;5148203;27;45365;-75
2022/09/26 12:17:41;;;;;;;0.55;0.47;;;21.40;70.10;;;;;;5139062;27;45447;-75
2022/09/26 12:20:20;;;;;;;1.30;0.40;;;21.40;70.10;;;;;;5144146;27;47082;-75
2022/09/26 12:22:58;;;;;;;0.80;0.50;;;21.40;70.10;;;;;;5142654;27;45330;-74
2022/09/26 12:25:37;;;;;;;0.57;0.40;;;21.40;70.20;;;;;;5134610;27;45238;-75
2022/09/26 12:28:18;;;;;;;0.77;0.60;;;21.40;70.10;;;;;;5145197;27;45694;-75
2022/09/26 12:30:52;;;;;;;0.98;0.50;;;21.40;70.20;;;;;;5153394;27;47319;-75
2022/09/26 12:33:50;;;;;;;0.93;0.60;;;21.50;70.30;;;;;;5127556;27;45266;-75
2022/09/26 12:36:36;;;;;;;0.80;0.50;;;21.40;70.30;;;;;;5138757;27;45410;-75
2022/09/26 12:39:38;;;;;;;1.00;0.50;;;21.40;70.30;;;;;;5142902;27;45563;-75
2022/09/26 12:42:15;;;;;;;0.88;0.73;;;21.40;70.50;;;;;;5133542;27;46264;-75
2022/09/26 12:44:53;;;;;;;0.88;0.40;;;21.40;70.40;;;;;;5147662;27;45465;-75
2022/09/26 12:47:51;;;;;;;1.20;0.73;;;21.40;70.50;;;;;;5135298;27;45528;-75
2022/09/26 12:50:29;;;;;;;1.20;0.47;;;21.50;70.70;;;;;;5146779;27;45256;-75
2022/09/26 12:53:09;;;;;;;0.60;0.50;;;21.40;70.70;;;;;;5137177;27;48151;-75
2022/09/26 12:55:47;;;;;;;0.63;0.47;;;21.50;70.80;;;;;;5136255;27;45485;-75
2022/09/26 12:58:33;;;;;;;1.27;0.45;;;21.40;70.70;;;;;;5129240;27;45307;-75
2022/09/26 13:01:14;;;;;;;0.68;0.43;;;21.50;70.80;;;;;;5145375;27;45624;-75
2022/09/26 13:03:59;;;;;;;1.63;0.68;;;21.40;70.80;;;;;;5136920;27;46999;-75
2022/09/26 13:06:57;;;;;;;1.55;0.45;;;21.40;70.80;;;;;;5143954;27;45438;-75
2022/09/26 13:09:37;;;;;;;1.02;0.57;;;21.40;70.80;;;;;;5152235;27;45397;-75
2022/09/26 13:12:19;;;;;;;0.90;0.50;;;21.40;70.80;;;;;;5144445;27;45381;-75
2022/09/26 13:15:13;;;;;;;1.15;0.80;;;21.40;70.90;;;;;;5138338;27;45314;-75
2022/09/26 13:17:44;;;;;;;0.95;0.50;;;21.40;70.90;;;;;;5144983;27;45239;-75
2022/09/26 13:20:17;;;;;;;0.95;0.60;;;21.40;70.90;;;;;;5147228;27;45241;-75
2022/09/26 13:22:49;;;;;;;0.68;0.40;;;21.40;70.90;;;;;;5146780;27;45327;-75
2022/09/26 13:25:19;;;;;;;0.85;0.50;;;21.40;70.90;;;;;;5146583;27;46284;-75
2022/09/26 13:27:54;;;;;;;0.70;0.60;;;21.40;70.90;;;;;;5142520;27;45331;-75
2022/09/26 13:30:25;;;;;;;0.60;0.43;;;21.40;70.90;;;;;;5135012;27;45377;-75
2022/09/26 13:33:00;;;;;;;1.45;0.47;;;21.40;70.90;;;;;;5155991;27;45247;-75